sensor_id;sensor_type;location;lat;lon;timestamp;pressure;altitude;pressure_sealevel;temperature;humidity
44127;BME280;29786;50.798;7.302;2023-07-20T00:00:24;99050;;;17.04;100
44127;BME280;29786;50.798;7.302;2023-07-20T00:01:25;99050;;;17.07;100
44127;BME280;29786;50.798;7.302;2023-07-20T00:02:26;99050;;;17.07;100
44127;BME280;29786;50.798;7.302;2023-07-20T00:03:25;99050;;;17.12;100
44127;BME280;29786;50.798;7.302;2023-07-20T00:04:25;99060;;;17.17;100
44127;BME280;29786;50.798;7.302;2023-07-20T00:05:24;99060;;;17.16;100
44127;BME280;29786;50.798;7.302;2023-07-20T00:06:24;99060;;;17.17;100
44127;BME280;29786;50.798;7.302;2023-07-20T00:07:24;99050;;;17.19;100
44127;BME280;29786;50.798;7.302;2023-07-20T00:08:25;99050;;;17.21;100
44127;BME280;29786;50.798;7.302;2023-07-20T00:09:23;99060;;;17.25;100
44127;BME280;29786;50.798;7.302;2023-07-20T00:10:25;99050;;;17.24;100
44127;BME280;29786;50.798;7.302;2023-07-20T00:11:25;99060;;;17.24;100
44127;BME280;29786;50.798;7.302;2023-07-20T00:12:25;99060;;;17.2;100
44127;BME280;29786;50.798;7.302;2023-07-20T00:13:24;99060;;;17.21;100
44127;BME280;29786;50.798;7.302;2023-07-20T00:14:24;99060;;;17.17;100
44127;BME280;29786;50.798;7.302;2023-07-20T00:15:24;99050;;;17.16;100
44127;BME280;29786;50.798;7.302;2023-07-20T00:16:25;99060;;;17.16;100
44127;BME280;29786;50.798;7.302;2023-07-20T00:17:24;99060;;;17.16;100
44127;BME280;29786;50.798;7.302;2023-07-20T00:18:24;99060;;;17.15;100
44127;BME280;29786;50.798;7.302;2023-07-20T00:19:25;99050;;;17.18;100
44127;BME280;29786;50.798;7.302;2023-07-20T00:20:25;99050;;;17.19;100
44127;BME280;29786;50.798;7.302;2023-07-20T00:21:25;99050;;;17.2;100
44127;BME280;29786;50.798;7.302;2023-07-20T00:22:24;99060;;;17.19;100
44127;BME280;29786;50.798;7.302;2023-07-20T00:23:25;99050;;;17.17;100
44127;BME280;29786;50.798;7.302;2023-07-20T00:24:25;99060;;;17.19;100
44127;BME280;29786;50.798;7.302;2023-07-20T00:25:25;99050;;;17.17;100
44127;BME280;29786;50.798;7.302;2023-07-20T00:26:24;99050;;;17.2;100
44127;BME280;29786;50.798;7.302;2023-07-20T00:27:24;99060;;;17.24;100
44127;BME280;29786;50.798;7.302;2023-07-20T00:28:25;99060;;;17.23;100
44127;BME280;29786;50.798;7.302;2023-07-20T00:29:25;99050;;;17.23;100
44127;BME280;29786;50.798;7.302;2023-07-20T00:30:24;99050;;;17.23;100
44127;BME280;29786;50.798;7.302;2023-07-20T00:31:23;99050;;;17.23;100
44127;BME280;29786;50.798;7.302;2023-07-20T00:32:25;99050;;;17.23;100
44127;BME280;29786;50.798;7.302;2023-07-20T00:33:25;99050;;;17.23;100
44127;BME280;29786;50.798;7.302;2023-07-20T00:34:25;99050;;;17.2;100
44127;BME280;29786;50.798;7.302;2023-07-20T00:35:26;99050;;;17.23;100
44127;BME280;29786;50.798;7.302;2023-07-20T00:36:25;99050;;;17.2;100
44127;BME280;29786;50.798;7.302;2023-07-20T00:37:25;99050;;;17.17;100
44127;BME280;29786;50.798;7.302;2023-07-20T00:38:25;99050;;;17.18;100
44127;BME280;29786;50.798;7.302;2023-07-20T00:39:24;99050;;;17.21;100
44127;BME280;29786;50.798;7.302;2023-07-20T00:40:24;99050;;;17.23;100
44127;BME280;29786;50.798;7.302;2023-07-20T00:41:25;99050;;;17.24;100
44127;BME280;29786;50.798;7.302;2023-07-20T00:42:26;99050;;;17.27;100
44127;BME280;29786;50.798;7.302;2023-07-20T00:43:25;99060;;;17.25;100
44127;BME280;29786;50.798;7.302;2023-07-20T00:44:25;99050;;;17.27;100
44127;BME280;29786;50.798;7.302;2023-07-20T00:45:24;99060;;;17.31;100
44127;BME280;29786;50.798;7.302;2023-07-20T00:46:24;99060;;;17.31;100
44127;BME280;29786;50.798;7.302;2023-07-20T00:47:26;99050;;;17.34;100
44127;BME280;29786;50.798;7.302;2023-07-20T00:48:25;99060;;;17.37;100
44127;BME280;29786;50.798;7.302;2023-07-20T00:49:25;99060;;;17.37;100
44127;BME280;29786;50.798;7.302;2023-07-20T00:50:25;99060;;;17.36;100
44127;BME280;29786;50.798;7.302;2023-07-20T00:51:24;99060;;;17.34;100
44127;BME280;29786;50.798;7.302;2023-07-20T00:52:24;99060;;;17.33;100
44127;BME280;29786;50.798;7.302;2023-07-20T00:53:25;99060;;;17.32;100
44127;BME280;29786;50.798;7.302;2023-07-20T00:54:26;99060;;;17.28;100
44127;BME280;29786;50.798;7.302;2023-07-20T00:55:25;99060;;;17.32;100
44127;BME280;29786;50.798;7.302;2023-07-20T00:56:25;99060;;;17.35;100
44127;BME280;29786;50.798;7.302;2023-07-20T00:57:24;99060;;;17.37;100
44127;BME280;29786;50.798;7.302;2023-07-20T00:58:24;99060;;;17.35;100
44127;BME280;29786;50.798;7.302;2023-07-20T00:59:25;99060;;;17.31;100
44127;BME280;29786;50.798;7.302;2023-07-20T01:00:24;99070;;;17.29;100
44127;BME280;29786;50.798;7.302;2023-07-20T01:01:27;99070;;;17.23;100
44127;BME280;29786;50.798;7.302;2023-07-20T01:02:25;99060;;;17.2;100
44127;BME280;29786;50.798;7.302;2023-07-20T01:03:25;99060;;;17.16;100
44127;BME280;29786;50.798;7.302;2023-07-20T01:04:25;99060;;;17.09;100
44127;BME280;29786;50.798;7.302;2023-07-20T01:05:36;99060;;;17.06;100
44127;BME280;29786;50.798;7.302;2023-07-20T01:06:36;99060;;;17.01;100
44127;BME280;29786;50.798;7.302;2023-07-20T01:07:30;99060;;;16.96;100
44127;BME280;29786;50.798;7.302;2023-07-20T01:08:28;99060;;;16.96;100
44127;BME280;29786;50.798;7.302;2023-07-20T01:09:27;99060;;;16.94;100
44127;BME280;29786;50.798;7.302;2023-07-20T01:10:27;99060;;;16.9;100
44127;BME280;29786;50.798;7.302;2023-07-20T01:11:31;99060;;;16.9;100
44127;BME280;29786;50.798;7.302;2023-07-20T01:12:26;99060;;;16.87;100
44127;BME280;29786;50.798;7.302;2023-07-20T01:13:25;99060;;;16.87;100
44127;BME280;29786;50.798;7.302;2023-07-20T01:14:26;99060;;;16.93;100
44127;BME280;29786;50.798;7.302;2023-07-20T01:15:25;99060;;;16.92;100
44127;BME280;29786;50.798;7.302;2023-07-20T01:16:24;99060;;;16.87;100
44127;BME280;29786;50.798;7.302;2023-07-20T01:17:24;99060;;;16.87;100
44127;BME280;29786;50.798;7.302;2023-07-20T01:18:25;99060;;;16.86;100
44127;BME280;29786;50.798;7.302;2023-07-20T01:19:25;99060;;;16.82;100
44127;BME280;29786;50.798;7.302;2023-07-20T01:20:24;99060;;;16.83;100
44127;BME280;29786;50.798;7.302;2023-07-20T01:21:27;99060;;;16.77;100
44127;BME280;29786;50.798;7.302;2023-07-20T01:24:38;99070;;;16.7;100
44127;BME280;29786;50.798;7.302;2023-07-20T01:25:31;99070;;;16.68;100
44127;BME280;29786;50.798;7.302;2023-07-20T01:30:32;99060;;;16.66;100
44127;BME280;29786;50.798;7.302;2023-07-20T01:31:26;99060;;;16.65;100
44127;BME280;29786;50.798;7.302;2023-07-20T01:32:24;99060;;;16.62;100
44127;BME280;29786;50.798;7.302;2023-07-20T01:33:25;99060;;;16.61;100
44127;BME280;29786;50.798;7.302;2023-07-20T01:34:25;99060;;;16.59;100
44127;BME280;29786;50.798;7.302;2023-07-20T01:35:27;99060;;;16.54;100
44127;BME280;29786;50.798;7.302;2023-07-20T01:36:26;99060;;;16.49;100
44127;BME280;29786;50.798;7.302;2023-07-20T01:37:25;99060;;;16.49;100
44127;BME280;29786;50.798;7.302;2023-07-20T01:38:23;99050;;;16.5;100
44127;BME280;29786;50.798;7.302;2023-07-20T01:39:25;99060;;;16.51;100
44127;BME280;29786;50.798;7.302;2023-07-20T01:40:25;99050;;;16.49;100
44127;BME280;29786;50.798;7.302;2023-07-20T01:41:24;99050;;;16.51;100
44127;BME280;29786;50.798;7.302;2023-07-20T01:42:26;99050;;;16.48;100
44127;BME280;29786;50.798;7.302;2023-07-20T01:43:25;99050;;;16.46;100
44127;BME280;29786;50.798;7.302;2023-07-20T01:44:24;99050;;;16.45;100
44127;BME280;29786;50.798;7.302;2023-07-20T01:45:24;99050;;;16.43;100
44127;BME280;29786;50.798;7.302;2023-07-20T01:46:25;99050;;;16.4;100
44127;BME280;29786;50.798;7.302;2023-07-20T01:47:25;99050;;;16.4;100
44127;BME280;29786;50.798;7.302;2023-07-20T01:48:25;99050;;;16.37;100
44127;BME280;29786;50.798;7.302;2023-07-20T01:49:24;99060;;;16.33;100
44127;BME280;29786;50.798;7.302;2023-07-20T01:50:25;99050;;;16.29;100
44127;BME280;29786;50.798;7.302;2023-07-20T01:51:25;99050;;;16.28;100
44127;BME280;29786;50.798;7.302;2023-07-20T01:52:25;99050;;;16.27;100
44127;BME280;29786;50.798;7.302;2023-07-20T01:53:24;99050;;;16.26;100
44127;BME280;29786;50.798;7.302;2023-07-20T01:54:24;99050;;;16.26;100
44127;BME280;29786;50.798;7.302;2023-07-20T01:55:25;99050;;;16.17;100
44127;BME280;29786;50.798;7.302;2023-07-20T01:56:25;99050;;;16.12;100
44127;BME280;29786;50.798;7.302;2023-07-20T01:57:24;99050;;;16.16;100
44127;BME280;29786;50.798;7.302;2023-07-20T01:58:24;99050;;;16.14;100
44127;BME280;29786;50.798;7.302;2023-07-20T01:59:25;99050;;;16.16;100
44127;BME280;29786;50.798;7.302;2023-07-20T02:00:24;99050;;;16.14;100
44127;BME280;29786;50.798;7.302;2023-07-20T02:01:24;99050;;;16.12;100
44127;BME280;29786;50.798;7.302;2023-07-20T02:02:26;99050;;;16.16;100
44127;BME280;29786;50.798;7.302;2023-07-20T02:03:25;99050;;;16.19;100
44127;BME280;29786;50.798;7.302;2023-07-20T02:04:25;99050;;;16.16;100
44127;BME280;29786;50.798;7.302;2023-07-20T02:05:26;99050;;;16.16;100
44127;BME280;29786;50.798;7.302;2023-07-20T02:06:24;99050;;;16.11;100
44127;BME280;29786;50.798;7.302;2023-07-20T02:07:25;99050;;;16.15;100
44127;BME280;29786;50.798;7.302;2023-07-20T02:08:24;99050;;;16.09;100
44127;BME280;29786;50.798;7.302;2023-07-20T02:09:25;99040;;;16.11;100
44127;BME280;29786;50.798;7.302;2023-07-20T02:10:25;99050;;;16.08;100
44127;BME280;29786;50.798;7.302;2023-07-20T02:11:24;99050;;;16.08;100
44127;BME280;29786;50.798;7.302;2023-07-20T02:12:25;99050;;;16.08;100
44127;BME280;29786;50.798;7.302;2023-07-20T02:13:24;99050;;;16.07;100
44127;BME280;29786;50.798;7.302;2023-07-20T02:14:26;99050;;;16.08;100
44127;BME280;29786;50.798;7.302;2023-07-20T02:15:25;99050;;;16.1;100
44127;BME280;29786;50.798;7.302;2023-07-20T02:16:25;99050;;;16.14;100
44127;BME280;29786;50.798;7.302;2023-07-20T02:17:25;99050;;;16.15;100
44127;BME280;29786;50.798;7.302;2023-07-20T02:18:25;99060;;;16.17;100
44127;BME280;29786;50.798;7.302;2023-07-20T02:19:25;99050;;;16.2;100
44127;BME280;29786;50.798;7.302;2023-07-20T02:20:26;99040;;;16.19;100
44127;BME280;29786;50.798;7.302;2023-07-20T02:21:25;99050;;;16.19;100
44127;BME280;29786;50.798;7.302;2023-07-20T02:22:25;99040;;;16.19;100
44127;BME280;29786;50.798;7.302;2023-07-20T02:24:25;99050;;;16.23;100
44127;BME280;29786;50.798;7.302;2023-07-20T02:25:24;99050;;;16.2;100
44127;BME280;29786;50.798;7.302;2023-07-20T02:26:24;99050;;;16.19;100
44127;BME280;29786;50.798;7.302;2023-07-20T02:27:25;99050;;;16.15;100
44127;BME280;29786;50.798;7.302;2023-07-20T02:28:24;99050;;;16.17;100
44127;BME280;29786;50.798;7.302;2023-07-20T02:29:25;99040;;;16.07;100
44127;BME280;29786;50.798;7.302;2023-07-20T02:30:25;99040;;;16.06;100
44127;BME280;29786;50.798;7.302;2023-07-20T02:31:25;99040;;;15.99;100
44127;BME280;29786;50.798;7.302;2023-07-20T02:32:26;99040;;;15.9;100
44127;BME280;29786;50.798;7.302;2023-07-20T02:33:26;99040;;;15.88;100
44127;BME280;29786;50.798;7.302;2023-07-20T02:34:24;99040;;;15.87;100
44127;BME280;29786;50.798;7.302;2023-07-20T02:35:25;99040;;;15.85;100
44127;BME280;29786;50.798;7.302;2023-07-20T02:36:25;99040;;;15.83;100
44127;BME280;29786;50.798;7.302;2023-07-20T02:37:24;99040;;;15.81;100
44127;BME280;29786;50.798;7.302;2023-07-20T02:38:24;99040;;;15.77;100
44127;BME280;29786;50.798;7.302;2023-07-20T02:39:27;99040;;;15.75;100
44127;BME280;29786;50.798;7.302;2023-07-20T02:40:25;99040;;;15.71;100
44127;BME280;29786;50.798;7.302;2023-07-20T02:41:26;99040;;;15.74;100
44127;BME280;29786;50.798;7.302;2023-07-20T02:42:25;99040;;;15.75;100
44127;BME280;29786;50.798;7.302;2023-07-20T02:43:24;99040;;;15.77;100
44127;BME280;29786;50.798;7.302;2023-07-20T02:44:24;99040;;;15.74;100
44127;BME280;29786;50.798;7.302;2023-07-20T02:46:24;99040;;;15.67;100
44127;BME280;29786;50.798;7.302;2023-07-20T02:47:25;99040;;;15.8;100
44127;BME280;29786;50.798;7.302;2023-07-20T02:48:24;99040;;;15.81;100
44127;BME280;29786;50.798;7.302;2023-07-20T02:49:26;99040;;;15.77;100
44127;BME280;29786;50.798;7.302;2023-07-20T02:50:25;99040;;;15.72;100
44127;BME280;29786;50.798;7.302;2023-07-20T02:51:24;99040;;;15.76;100
44127;BME280;29786;50.798;7.302;2023-07-20T02:52:25;99040;;;15.78;100
44127;BME280;29786;50.798;7.302;2023-07-20T02:53:24;99050;;;15.85;100
44127;BME280;29786;50.798;7.302;2023-07-20T02:54:25;99040;;;15.88;100
44127;BME280;29786;50.798;7.302;2023-07-20T02:55:25;99040;;;15.83;100
44127;BME280;29786;50.798;7.302;2023-07-20T02:56:25;99050;;;15.77;100
44127;BME280;29786;50.798;7.302;2023-07-20T02:57:25;99050;;;15.83;100
44127;BME280;29786;50.798;7.302;2023-07-20T02:58:25;99050;;;15.86;100
44127;BME280;29786;50.798;7.302;2023-07-20T02:59:24;99040;;;15.83;100
44127;BME280;29786;50.798;7.302;2023-07-20T03:00:25;99040;;;15.85;100
44127;BME280;29786;50.798;7.302;2023-07-20T03:01:25;99050;;;15.85;100
44127;BME280;29786;50.798;7.302;2023-07-20T03:02:25;99050;;;15.75;100
44127;BME280;29786;50.798;7.302;2023-07-20T03:03:25;99050;;;15.71;100
44127;BME280;29786;50.798;7.302;2023-07-20T03:04:26;99040;;;15.67;100
44127;BME280;29786;50.798;7.302;2023-07-20T03:05:26;99050;;;15.65;100
44127;BME280;29786;50.798;7.302;2023-07-20T03:06:25;99050;;;15.62;100
44127;BME280;29786;50.798;7.302;2023-07-20T03:07:23;99040;;;15.57;100
44127;BME280;29786;50.798;7.302;2023-07-20T03:08:25;99040;;;15.53;100
44127;BME280;29786;50.798;7.302;2023-07-20T03:09:24;99050;;;15.52;100
44127;BME280;29786;50.798;7.302;2023-07-20T03:10:25;99040;;;15.56;100
44127;BME280;29786;50.798;7.302;2023-07-20T03:11:25;99040;;;15.62;100
44127;BME280;29786;50.798;7.302;2023-07-20T03:12:24;99050;;;15.58;100
44127;BME280;29786;50.798;7.302;2023-07-20T03:13:24;99040;;;15.51;100
44127;BME280;29786;50.798;7.302;2023-07-20T03:14:25;99040;;;15.45;100
44127;BME280;29786;50.798;7.302;2023-07-20T03:15:25;99040;;;15.43;100
44127;BME280;29786;50.798;7.302;2023-07-20T03:16:25;99040;;;15.43;100
44127;BME280;29786;50.798;7.302;2023-07-20T03:17:25;99040;;;15.39;100
44127;BME280;29786;50.798;7.302;2023-07-20T03:18:25;99040;;;15.37;100
44127;BME280;29786;50.798;7.302;2023-07-20T03:19:25;99040;;;15.32;100
44127;BME280;29786;50.798;7.302;2023-07-20T03:20:25;99050;;;15.25;100
44127;BME280;29786;50.798;7.302;2023-07-20T03:21:25;99050;;;15.26;100
44127;BME280;29786;50.798;7.302;2023-07-20T03:22:25;99050;;;15.24;100
44127;BME280;29786;50.798;7.302;2023-07-20T03:23:25;99050;;;15.25;100
44127;BME280;29786;50.798;7.302;2023-07-20T03:24:25;99050;;;15.25;100
44127;BME280;29786;50.798;7.302;2023-07-20T03:25:25;99050;;;15.23;100
44127;BME280;29786;50.798;7.302;2023-07-20T03:26:24;99060;;;15.24;100
44127;BME280;29786;50.798;7.302;2023-07-20T03:27:24;99060;;;15.22;100
44127;BME280;29786;50.798;7.302;2023-07-20T03:28:25;99060;;;15.19;100
44127;BME280;29786;50.798;7.302;2023-07-20T03:29:23;99060;;;15.19;100
44127;BME280;29786;50.798;7.302;2023-07-20T03:30:24;99060;;;15.16;100
44127;BME280;29786;50.798;7.302;2023-07-20T03:31:25;99060;;;15.16;100
44127;BME280;29786;50.798;7.302;2023-07-20T03:32:25;99070;;;15.19;100
44127;BME280;29786;50.798;7.302;2023-07-20T03:33:25;99070;;;15.21;100
44127;BME280;29786;50.798;7.302;2023-07-20T03:34:24;99070;;;15.23;100
44127;BME280;29786;50.798;7.302;2023-07-20T03:35:25;99070;;;15.26;100
44127;BME280;29786;50.798;7.302;2023-07-20T03:36:25;99060;;;15.29;100
44127;BME280;29786;50.798;7.302;2023-07-20T03:37:24;99060;;;15.29;100
44127;BME280;29786;50.798;7.302;2023-07-20T03:38:25;99060;;;15.31;100
44127;BME280;29786;50.798;7.302;2023-07-20T03:39:26;99060;;;15.32;100
44127;BME280;29786;50.798;7.302;2023-07-20T03:40:24;99060;;;15.33;100
44127;BME280;29786;50.798;7.302;2023-07-20T03:41:25;99060;;;15.34;100
44127;BME280;29786;50.798;7.302;2023-07-20T03:42:24;99060;;;15.36;100
44127;BME280;29786;50.798;7.302;2023-07-20T03:43:26;99060;;;15.38;100
44127;BME280;29786;50.798;7.302;2023-07-20T03:44:24;99060;;;15.36;100
44127;BME280;29786;50.798;7.302;2023-07-20T03:45:24;99060;;;15.3;100
44127;BME280;29786;50.798;7.302;2023-07-20T03:46:24;99070;;;15.27;100
44127;BME280;29786;50.798;7.302;2023-07-20T03:47:24;99070;;;15.24;100
44127;BME280;29786;50.798;7.302;2023-07-20T03:48:25;99060;;;15.23;100
44127;BME280;29786;50.798;7.302;2023-07-20T03:49:25;99070;;;15.22;100
44127;BME280;29786;50.798;7.302;2023-07-20T03:50:25;99070;;;15.23;100
44127;BME280;29786;50.798;7.302;2023-07-20T03:51:25;99070;;;15.21;100
44127;BME280;29786;50.798;7.302;2023-07-20T03:52:24;99070;;;15.22;100
44127;BME280;29786;50.798;7.302;2023-07-20T03:53:24;99070;;;15.23;100
44127;BME280;29786;50.798;7.302;2023-07-20T03:54:24;99070;;;15.22;100
44127;BME280;29786;50.798;7.302;2023-07-20T03:55:26;99070;;;15.22;100
44127;BME280;29786;50.798;7.302;2023-07-20T03:56:24;99070;;;15.23;100
44127;BME280;29786;50.798;7.302;2023-07-20T03:57:24;99070;;;15.24;100
44127;BME280;29786;50.798;7.302;2023-07-20T03:58:24;99070;;;15.24;100
44127;BME280;29786;50.798;7.302;2023-07-20T03:59:25;99070;;;15.25;100
44127;BME280;29786;50.798;7.302;2023-07-20T04:00:25;99070;;;15.28;100
44127;BME280;29786;50.798;7.302;2023-07-20T04:01:24;99070;;;15.28;100
44127;BME280;29786;50.798;7.302;2023-07-20T04:02:24;99070;;;15.3;100
44127;BME280;29786;50.798;7.302;2023-07-20T04:03:25;99070;;;15.28;100
44127;BME280;29786;50.798;7.302;2023-07-20T04:04:24;99070;;;15.29;100
44127;BME280;29786;50.798;7.302;2023-07-20T04:05:25;99070;;;15.31;100
44127;BME280;29786;50.798;7.302;2023-07-20T04:06:25;99070;;;15.32;100
44127;BME280;29786;50.798;7.302;2023-07-20T04:07:25;99070;;;15.28;100
44127;BME280;29786;50.798;7.302;2023-07-20T04:08:25;99070;;;15.3;100
44127;BME280;29786;50.798;7.302;2023-07-20T04:09:26;99070;;;15.31;100
44127;BME280;29786;50.798;7.302;2023-07-20T04:10:25;99070;;;15.31;100
44127;BME280;29786;50.798;7.302;2023-07-20T04:11:25;99070;;;15.33;100
44127;BME280;29786;50.798;7.302;2023-07-20T04:12:24;99070;;;15.33;100
44127;BME280;29786;50.798;7.302;2023-07-20T04:13:24;99070;;;15.34;100
44127;BME280;29786;50.798;7.302;2023-07-20T04:14:23;99070;;;15.38;100
44127;BME280;29786;50.798;7.302;2023-07-20T04:15:25;99070;;;15.39;100
44127;BME280;29786;50.798;7.302;2023-07-20T04:16:25;99070;;;15.37;100
44127;BME280;29786;50.798;7.302;2023-07-20T04:17:25;99070;;;15.41;100
44127;BME280;29786;50.798;7.302;2023-07-20T04:18:24;99070;;;15.44;100
44127;BME280;29786;50.798;7.302;2023-07-20T04:19:26;99070;;;15.43;100
44127;BME280;29786;50.798;7.302;2023-07-20T04:20:25;99070;;;15.44;100
44127;BME280;29786;50.798;7.302;2023-07-20T04:21:26;99070;;;15.52;100
44127;BME280;29786;50.798;7.302;2023-07-20T04:22:24;99070;;;15.53;100
44127;BME280;29786;50.798;7.302;2023-07-20T04:23:25;99070;;;15.61;100
44127;BME280;29786;50.798;7.302;2023-07-20T04:24:25;99070;;;15.68;100
44127;BME280;29786;50.798;7.302;2023-07-20T04:25:24;99070;;;15.68;100
44127;BME280;29786;50.798;7.302;2023-07-20T04:26:24;99070;;;15.67;100
44127;BME280;29786;50.798;7.302;2023-07-20T04:27:24;99070;;;15.71;100
44127;BME280;29786;50.798;7.302;2023-07-20T04:28:25;99070;;;15.71;100
44127;BME280;29786;50.798;7.302;2023-07-20T04:29:24;99070;;;15.68;100
44127;BME280;29786;50.798;7.302;2023-07-20T04:30:25;99070;;;15.64;100
44127;BME280;29786;50.798;7.302;2023-07-20T04:31:25;99070;;;15.62;100
44127;BME280;29786;50.798;7.302;2023-07-20T04:32:25;99070;;;15.57;100
44127;BME280;29786;50.798;7.302;2023-07-20T04:33:25;99070;;;15.56;100
44127;BME280;29786;50.798;7.302;2023-07-20T04:34:25;99070;;;15.56;100
44127;BME280;29786;50.798;7.302;2023-07-20T04:35:57;99070;;;15.58;100
44127;BME280;29786;50.798;7.302;2023-07-20T04:36:24;99070;;;15.54;100
44127;BME280;29786;50.798;7.302;2023-07-20T04:37:24;99070;;;15.58;100
44127;BME280;29786;50.798;7.302;2023-07-20T04:38:23;99070;;;15.6;100
44127;BME280;29786;50.798;7.302;2023-07-20T04:39:25;99070;;;15.62;100
44127;BME280;29786;50.798;7.302;2023-07-20T04:40:25;99080;;;15.63;100
44127;BME280;29786;50.798;7.302;2023-07-20T04:41:25;99080;;;15.67;100
44127;BME280;29786;50.798;7.302;2023-07-20T04:42:25;99080;;;15.69;100
44127;BME280;29786;50.798;7.302;2023-07-20T04:43:24;99080;;;15.69;100
44127;BME280;29786;50.798;7.302;2023-07-20T04:44:25;99080;;;15.69;100
44127;BME280;29786;50.798;7.302;2023-07-20T04:45:25;99080;;;15.71;100
44127;BME280;29786;50.798;7.302;2023-07-20T04:46:25;99080;;;15.7;100
44127;BME280;29786;50.798;7.302;2023-07-20T04:47:25;99080;;;15.65;100
44127;BME280;29786;50.798;7.302;2023-07-20T04:48:25;99080;;;15.67;100
44127;BME280;29786;50.798;7.302;2023-07-20T04:49:25;99090;;;15.72;100
44127;BME280;29786;50.798;7.302;2023-07-20T04:50:25;99090;;;15.79;100
44127;BME280;29786;50.798;7.302;2023-07-20T04:51:25;99080;;;15.78;100
44127;BME280;29786;50.798;7.302;2023-07-20T04:52:25;99080;;;15.81;100
44127;BME280;29786;50.798;7.302;2023-07-20T04:53:25;99090;;;15.89;100
44127;BME280;29786;50.798;7.302;2023-07-20T04:54:26;99080;;;15.96;100
44127;BME280;29786;50.798;7.302;2023-07-20T04:55:26;99090;;;15.95;100
44127;BME280;29786;50.798;7.302;2023-07-20T04:56:25;99080;;;15.92;100
44127;BME280;29786;50.798;7.302;2023-07-20T04:57:25;99090;;;15.89;100
44127;BME280;29786;50.798;7.302;2023-07-20T04:58:25;99090;;;15.9;100
44127;BME280;29786;50.798;7.302;2023-07-20T04:59:25;99090;;;15.92;100
44127;BME280;29786;50.798;7.302;2023-07-20T05:00:25;99080;;;15.93;100
44127;BME280;29786;50.798;7.302;2023-07-20T05:01:26;99090;;;15.96;100
44127;BME280;29786;50.798;7.302;2023-07-20T05:02:25;99090;;;15.98;100
44127;BME280;29786;50.798;7.302;2023-07-20T05:03:25;99090;;;16.01;100
44127;BME280;29786;50.798;7.302;2023-07-20T05:04:24;99090;;;16.01;100
44127;BME280;29786;50.798;7.302;2023-07-20T05:05:24;99090;;;15.96;100
44127;BME280;29786;50.798;7.302;2023-07-20T05:06:25;99090;;;15.95;100
44127;BME280;29786;50.798;7.302;2023-07-20T05:07:25;99080;;;15.97;100
44127;BME280;29786;50.798;7.302;2023-07-20T05:08:24;99090;;;16;100
44127;BME280;29786;50.798;7.302;2023-07-20T05:09:25;99090;;;16.03;100
44127;BME280;29786;50.798;7.302;2023-07-20T05:10:24;99090;;;16.04;100
44127;BME280;29786;50.798;7.302;2023-07-20T05:11:25;99090;;;16.09;100
44127;BME280;29786;50.798;7.302;2023-07-20T05:12:25;99090;;;16.04;100
44127;BME280;29786;50.798;7.302;2023-07-20T05:13:24;99090;;;16.09;100
44127;BME280;29786;50.798;7.302;2023-07-20T05:14:25;99090;;;16.1;100
44127;BME280;29786;50.798;7.302;2023-07-20T05:15:25;99100;;;16.16;100
44127;BME280;29786;50.798;7.302;2023-07-20T05:16:25;99090;;;16.15;100
44127;BME280;29786;50.798;7.302;2023-07-20T05:17:25;99090;;;16.07;100
44127;BME280;29786;50.798;7.302;2023-07-20T05:18:24;99090;;;16.11;100
44127;BME280;29786;50.798;7.302;2023-07-20T05:19:25;99090;;;16.12;100
44127;BME280;29786;50.798;7.302;2023-07-20T05:20:24;99090;;;16.08;100
44127;BME280;29786;50.798;7.302;2023-07-20T05:21:25;99090;;;16.04;100
44127;BME280;29786;50.798;7.302;2023-07-20T05:22:25;99090;;;16.01;100
44127;BME280;29786;50.798;7.302;2023-07-20T05:23:24;99090;;;16.03;100
44127;BME280;29786;50.798;7.302;2023-07-20T05:24:25;99100;;;16.08;100
44127;BME280;29786;50.798;7.302;2023-07-20T05:25:25;99100;;;16.11;100
44127;BME280;29786;50.798;7.302;2023-07-20T05:26:25;99100;;;16.09;100
44127;BME280;29786;50.798;7.302;2023-07-20T05:27:25;99090;;;16.04;100
44127;BME280;29786;50.798;7.302;2023-07-20T05:28:25;99100;;;16.06;100
44127;BME280;29786;50.798;7.302;2023-07-20T05:29:25;99100;;;16.07;100
44127;BME280;29786;50.798;7.302;2023-07-20T05:30:25;99100;;;16.07;100
44127;BME280;29786;50.798;7.302;2023-07-20T05:31:26;99100;;;16.09;100
44127;BME280;29786;50.798;7.302;2023-07-20T05:32:25;99100;;;16.12;100
44127;BME280;29786;50.798;7.302;2023-07-20T05:33:24;99100;;;16.24;100
44127;BME280;29786;50.798;7.302;2023-07-20T05:34:25;99090;;;16.2;100
44127;BME280;29786;50.798;7.302;2023-07-20T05:35:25;99090;;;16.15;100
44127;BME280;29786;50.798;7.302;2023-07-20T05:36:25;99090;;;16.2;100
44127;BME280;29786;50.798;7.302;2023-07-20T05:37:25;99090;;;16.28;100
44127;BME280;29786;50.798;7.302;2023-07-20T05:38:25;99090;;;16.29;100
44127;BME280;29786;50.798;7.302;2023-07-20T05:39:24;99090;;;16.34;100
44127;BME280;29786;50.798;7.302;2023-07-20T05:40:25;99090;;;16.29;100
44127;BME280;29786;50.798;7.302;2023-07-20T05:41:25;99090;;;16.28;100
44127;BME280;29786;50.798;7.302;2023-07-20T05:42:24;99100;;;16.33;100
44127;BME280;29786;50.798;7.302;2023-07-20T05:43:24;99090;;;16.41;100
44127;BME280;29786;50.798;7.302;2023-07-20T05:44:24;99090;;;16.43;100
44127;BME280;29786;50.798;7.302;2023-07-20T05:46:25;99090;;;16.37;100
44127;BME280;29786;50.798;7.302;2023-07-20T05:47:24;99100;;;16.41;100
44127;BME280;29786;50.798;7.302;2023-07-20T05:48:25;99090;;;16.45;100
44127;BME280;29786;50.798;7.302;2023-07-20T05:49:25;99100;;;16.56;100